createdAt,value
2019-03-29T00:00:06.381Z,24.65
2019-03-29T00:01:42.141Z,24.20
2019-03-29T00:03:17.073Z,23.27
2019-03-29T00:04:52.968Z,23.67
2019-03-29T00:06:28.356Z,22.00
2019-03-29T00:08:03.531Z,22.17
2019-03-29T00:09:38.431Z,20.17
2019-03-29T00:11:13.678Z,21.60
2019-03-29T00:12:48.884Z,21.97
2019-03-29T00:14:23.904Z,19.20
2019-03-29T00:15:59.975Z,20.65
2019-03-29T00:17:35.417Z,20.77
2019-03-29T00:19:10.352Z,21.17
2019-03-29T00:20:45.399Z,21.13
2019-03-29T00:22:20.649Z,21.63
2019-03-29T00:24:06.224Z,21.37
2019-03-29T00:25:33.122Z,22.33
2019-03-29T00:27:08.333Z,22.70
2019-03-29T00:28:43.728Z,22.00
2019-03-29T00:30:18.902Z,22.63
2019-03-29T00:31:53.916Z,22.00
2019-03-29T00:33:28.850Z,22.43
2019-03-29T00:35:03.829Z,23.33
2019-03-29T00:36:38.828Z,21.20
2019-03-29T00:38:14.138Z,21.03
2019-03-29T00:39:49.366Z,20.17
2019-03-29T00:41:24.401Z,20.17
2019-03-29T00:43:00.025Z,21.03
2019-03-29T00:44:34.961Z,22.53
2019-03-29T00:46:09.874Z,21.43
2019-03-29T00:47:45.249Z,20.80
2019-03-29T00:49:20.446Z,19.80
2019-03-29T00:50:55.386Z,21.33
2019-03-29T00:52:30.312Z,22.37
2019-03-29T00:54:05.229Z,21.07
2019-03-29T00:55:40.145Z,22.33
2019-03-29T00:57:15.466Z,21.52
2019-03-29T00:58:50.520Z,22.35
2019-03-29T01:00:25.433Z,22.32
2019-03-29T01:02:00.345Z,22.57
2019-03-29T01:03:35.363Z,21.90
2019-03-29T01:05:10.402Z,22.32
2019-03-29T01:06:45.449Z,21.33
2019-03-29T01:08:20.734Z,21.15
2019-03-29T01:09:56.252Z,20.90
2019-03-29T01:11:31.949Z,21.40
2019-03-29T01:13:06.961Z,20.85
2019-03-29T01:14:42.264Z,20.57
2019-03-29T01:16:18.565Z,22.13
2019-03-29T01:17:53.521Z,22.77
2019-03-29T01:19:29.218Z,21.20
2019-03-29T01:21:05.038Z,23.27
2019-03-29T01:22:39.952Z,22.65
2019-03-29T01:24:15.900Z,23.73
2019-03-29T01:25:51.064Z,25.05
2019-03-29T01:27:26.041Z,24.27
2019-03-29T01:29:01.187Z,25.03
2019-03-29T01:30:36.257Z,23.40
2019-03-29T01:32:11.418Z,23.75
2019-03-29T01:33:46.373Z,23.47
2019-03-29T01:35:21.393Z,24.65
2019-03-29T01:36:56.800Z,23.77
2019-03-29T01:38:31.692Z,22.60
2019-03-29T01:40:08.948Z,22.62
2019-03-29T01:41:44.097Z,22.02
2019-03-29T01:43:19.088Z,23.87
2019-03-29T01:44:54.126Z,23.02
2019-03-29T01:46:29.107Z,23.15
2019-03-29T01:48:04.708Z,21.95
2019-03-29T01:49:39.944Z,21.65
2019-03-29T01:51:15.177Z,22.35
2019-03-29T01:52:50.172Z,21.43
2019-03-29T01:54:25.101Z,21.65
2019-03-29T01:56:00.290Z,24.30
2019-03-29T01:57:35.597Z,22.30
2019-03-29T01:59:10.594Z,23.55
2019-03-29T02:00:45.648Z,23.85
2019-03-29T02:02:21.026Z,25.43
2019-03-29T02:03:56.778Z,23.10
2019-03-29T02:05:31.789Z,22.80
2019-03-29T02:07:06.788Z,22.30
2019-03-29T02:08:41.800Z,23.22
2019-03-29T02:10:16.822Z,24.63
2019-03-29T02:11:51.738Z,23.15
2019-03-29T02:13:26.701Z,25.82
2019-03-29T02:15:01.727Z,23.75
2019-03-29T02:16:37.210Z,25.03
2019-03-29T02:18:12.285Z,23.50
2019-03-29T02:19:48.324Z,23.57
2019-03-29T02:21:25.097Z,23.77
2019-03-29T02:23:00.016Z,23.15
2019-03-29T02:24:35.174Z,22.77
2019-03-29T02:26:10.384Z,22.62
2019-03-29T02:27:45.414Z,22.52
2019-03-29T02:29:20.369Z,23.50
2019-03-29T02:30:55.612Z,22.00
2019-03-29T02:32:30.706Z,23.05
2019-03-29T02:34:05.709Z,22.53
2019-03-29T02:35:40.862Z,22.45
2019-03-29T02:37:15.900Z,22.73
2019-03-29T02:38:55.493Z,23.62
2019-03-29T02:40:27.956Z,22.50
2019-03-29T02:42:02.997Z,22.33
2019-03-29T02:43:38.634Z,22.48
2019-03-29T02:45:14.410Z,24.23
2019-03-29T02:46:49.334Z,23.38
2019-03-29T02:48:24.438Z,23.65
2019-03-29T02:49:59.491Z,23.85
2019-03-29T02:51:34.623Z,23.92
2019-03-29T02:53:09.840Z,23.52
2019-03-29T02:54:44.832Z,23.40
2019-03-29T02:56:19.847Z,22.70
2019-03-29T02:57:55.251Z,22.77
2019-03-29T02:59:30.860Z,24.60
2019-03-29T03:01:06.015Z,25.80
2019-03-29T03:02:41.147Z,24.90
2019-03-29T03:04:16.570Z,23.30
2019-03-29T03:05:51.800Z,24.72
2019-03-29T03:07:26.760Z,24.92
2019-03-29T03:09:12.999Z,23.95
2019-03-29T03:10:38.655Z,24.43
2019-03-29T03:12:13.614Z,24.00
2019-03-29T03:13:48.645Z,24.73
2019-03-29T03:15:23.735Z,23.60
2019-03-29T03:16:58.872Z,24.47
2019-03-29T03:18:33.798Z,23.93
2019-03-29T03:20:14.593Z,24.05
2019-03-29T03:21:47.520Z,24.00
2019-03-29T03:23:22.463Z,24.23
2019-03-29T03:24:57.478Z,23.65
2019-03-29T03:26:32.595Z,23.62
2019-03-29T03:28:07.557Z,22.25
2019-03-29T03:29:42.817Z,23.32
2019-03-29T03:31:17.769Z,21.40
2019-03-29T03:32:52.825Z,21.50
2019-03-29T03:34:27.847Z,22.07
2019-03-29T03:36:02.823Z,20.07
2019-03-29T03:37:37.774Z,20.80
2019-03-29T03:39:30.098Z,22.85
2019-03-29T03:40:49.403Z,22.17
2019-03-29T03:42:24.353Z,20.70
2019-03-29T03:43:59.451Z,20.30
2019-03-29T03:45:34.403Z,21.13
2019-03-29T03:47:09.413Z,21.95
2019-03-29T03:48:44.713Z,21.55
2019-03-29T03:50:36.487Z,22.73
2019-03-29T03:52:11.627Z,21.65
2019-03-29T03:53:46.895Z,24.12
2019-03-29T03:55:22.174Z,21.93
2019-03-29T03:56:58.079Z,21.37
2019-03-29T03:58:34.024Z,22.35
2019-03-29T04:00:10.506Z,20.92
2019-03-29T04:01:45.466Z,21.48
2019-03-29T04:03:20.664Z,20.77
2019-03-29T04:04:56.186Z,21.00
2019-03-29T04:06:31.110Z,22.02
2019-03-29T04:08:06.086Z,21.05
2019-03-29T04:09:49.354Z,20.65
2019-03-29T04:11:17.664Z,21.00
2019-03-29T04:12:52.672Z,18.75
2019-03-29T04:14:27.904Z,18.75
2019-03-29T04:16:02.938Z,18.82
2019-03-29T04:17:38.179Z,17.05
2019-03-29T04:19:13.337Z,20.55
2019-03-29T04:20:48.367Z,19.55
2019-03-29T04:22:23.318Z,20.60
2019-03-29T04:23:58.328Z,21.33
2019-03-29T04:25:33.913Z,20.10
2019-03-29T04:27:08.918Z,19.85
2019-03-29T04:28:44.015Z,20.23
2019-03-29T04:30:19.010Z,20.30
2019-03-29T04:31:53.986Z,21.00
2019-03-29T04:33:28.950Z,21.93
2019-03-29T04:35:04.345Z,21.07
2019-03-29T04:36:39.320Z,19.73
2019-03-29T04:38:14.626Z,19.00
2019-03-29T04:40:05.750Z,19.40
2019-03-29T04:41:26.226Z,18.40
2019-03-29T04:43:01.150Z,20.32
2019-03-29T04:44:36.071Z,22.32
2019-03-29T04:46:11.042Z,25.15
2019-03-29T04:47:46.056Z,26.02
2019-03-29T04:49:21.011Z,25.00
2019-03-29T04:50:56.312Z,21.95
2019-03-29T04:52:31.275Z,20.72
2019-03-29T04:54:06.459Z,20.02
2019-03-29T04:55:41.381Z,20.65
2019-03-29T04:57:16.342Z,19.17
2019-03-29T04:58:51.362Z,19.67
2019-03-29T05:00:26.379Z,18.82
2019-03-29T05:02:01.409Z,20.25
2019-03-29T05:03:36.357Z,20.48
2019-03-29T05:05:11.472Z,20.65
2019-03-29T05:06:46.398Z,22.77
2019-03-29T05:08:21.418Z,22.13
2019-03-29T05:09:56.751Z,20.97
2019-03-29T05:11:31.989Z,20.77
2019-03-29T05:13:07.020Z,20.70
2019-03-29T05:14:42.170Z,20.70
2019-03-29T05:16:17.089Z,20.05
2019-03-29T05:17:52.002Z,20.40
2019-03-29T05:19:26.950Z,19.63
2019-03-29T05:21:02.126Z,20.77
2019-03-29T05:22:37.091Z,21.57
2019-03-29T05:24:12.119Z,20.35
2019-03-29T05:25:47.139Z,21.68
2019-03-29T05:27:22.649Z,22.20
2019-03-29T05:28:57.876Z,19.75
2019-03-29T05:30:32.839Z,20.25
2019-03-29T05:32:07.866Z,20.17
2019-03-29T05:33:42.860Z,19.90
2019-03-29T05:35:17.774Z,18.75
2019-03-29T05:36:52.746Z,19.32
2019-03-29T05:38:27.685Z,20.40
2019-03-29T05:40:02.896Z,20.03
2019-03-29T05:41:37.825Z,19.15
2019-03-29T05:43:12.882Z,22.10
2019-03-29T05:44:47.855Z,22.07
2019-03-29T05:46:22.801Z,23.73
2019-03-29T05:47:57.757Z,22.07
2019-03-29T05:49:32.947Z,21.33
2019-03-29T05:51:07.853Z,21.00
2019-03-29T05:52:42.822Z,20.10
2019-03-29T05:54:18.096Z,20.60
2019-03-29T05:55:53.079Z,22.57
2019-03-29T05:57:28.229Z,21.53
2019-03-29T05:59:03.258Z,22.10
2019-03-29T06:00:38.189Z,21.25
2019-03-29T06:02:13.169Z,21.13
2019-03-29T06:03:48.503Z,21.53
2019-03-29T06:05:23.848Z,20.17
2019-03-29T06:06:58.797Z,18.93
2019-03-29T06:08:33.935Z,19.57
2019-03-29T06:10:09.296Z,20.83
2019-03-29T06:11:44.278Z,20.53
2019-03-29T06:13:19.205Z,19.57
2019-03-29T06:14:54.152Z,19.73
2019-03-29T06:16:38.795Z,21.27
2019-03-29T06:18:06.205Z,21.20
2019-03-29T06:19:41.160Z,21.40
2019-03-29T06:21:16.090Z,25.63
2019-03-29T06:22:51.398Z,23.47
2019-03-29T06:24:26.621Z,22.27
2019-03-29T06:26:01.584Z,21.87
2019-03-29T06:27:36.642Z,22.55
2019-03-29T06:29:11.918Z,20.43
2019-03-29T06:30:48.199Z,21.20
2019-03-29T06:32:23.117Z,20.10
2019-03-29T06:33:58.067Z,19.90
2019-03-29T06:35:36.347Z,18.97
2019-03-29T06:37:13.474Z,20.33
2019-03-29T06:38:50.054Z,19.43
2019-03-29T06:40:26.685Z,18.90
2019-03-29T06:42:01.602Z,20.57
2019-03-29T06:43:36.890Z,20.70
2019-03-29T06:45:12.325Z,19.77
2019-03-29T06:46:47.262Z,18.93
2019-03-29T06:48:22.513Z,21.90
2019-03-29T06:49:57.433Z,23.73
2019-03-29T06:51:32.352Z,23.27
2019-03-29T06:53:07.327Z,23.43
2019-03-29T06:54:42.262Z,25.03
2019-03-29T06:56:17.450Z,24.80
2019-03-29T06:57:52.370Z,22.60
2019-03-29T06:59:27.337Z,24.20
2019-03-29T07:01:02.344Z,25.20
2019-03-29T07:02:37.366Z,25.70
2019-03-29T07:04:12.874Z,25.77
2019-03-29T07:05:48.101Z,24.17
2019-03-29T07:07:23.015Z,23.30
2019-03-29T07:08:58.164Z,23.77
2019-03-29T07:10:33.114Z,24.50
2019-03-29T07:12:08.419Z,23.33
2019-03-29T07:13:56.195Z,23.63
2019-03-29T07:15:20.324Z,23.53
2019-03-29T07:16:55.661Z,23.13
2019-03-29T07:18:31.283Z,21.70
2019-03-29T07:20:07.702Z,21.90
2019-03-29T07:21:42.921Z,23.37
2019-03-29T07:23:18.155Z,23.53
2019-03-29T07:24:53.070Z,24.63
2019-03-29T07:26:28.262Z,21.17
2019-03-29T07:28:03.538Z,20.77
2019-03-29T07:29:38.557Z,21.83
2019-03-29T07:31:13.490Z,21.97
2019-03-29T07:32:48.686Z,23.23
2019-03-29T07:34:23.924Z,21.10
2019-03-29T07:35:58.857Z,22.83
2019-03-29T07:37:34.185Z,23.13
2019-03-29T07:39:09.522Z,22.77
2019-03-29T07:40:44.477Z,23.50
2019-03-29T07:42:19.785Z,24.70
2019-03-29T07:43:55.270Z,23.77
2019-03-29T07:45:30.462Z,22.23
2019-03-29T07:47:06.098Z,24.43
2019-03-29T07:48:41.004Z,21.97
2019-03-29T07:50:19.017Z,21.87
2019-03-29T07:51:53.313Z,21.47
2019-03-29T07:53:28.916Z,21.80
2019-03-29T07:55:04.885Z,20.67
2019-03-29T07:56:40.498Z,20.40
2019-03-29T07:58:16.187Z,20.13
2019-03-29T07:59:51.820Z,21.07
2019-03-29T08:01:27.695Z,22.40
2019-03-29T08:03:03.319Z,20.17
2019-03-29T08:04:39.166Z,19.30
2019-03-29T08:06:14.135Z,20.27
2019-03-29T08:07:49.134Z,20.93
2019-03-29T08:09:24.050Z,21.30
2019-03-29T08:10:59.226Z,23.63
2019-03-29T08:12:34.478Z,23.30
2019-03-29T08:14:09.493Z,22.90
2019-03-29T08:15:44.518Z,22.37
2019-03-29T08:17:20.024Z,22.80
2019-03-29T08:18:55.611Z,23.03
2019-03-29T08:20:43.649Z,21.63
2019-03-29T08:22:08.854Z,20.83
2019-03-29T08:23:44.447Z,22.00
2019-03-29T08:25:20.056Z,19.90
2019-03-29T08:26:55.759Z,21.10
2019-03-29T08:28:31.386Z,21.47
2019-03-29T08:30:08.438Z,19.60
2019-03-29T08:31:44.349Z,21.03
2019-03-29T08:33:19.946Z,20.23
2019-03-29T08:34:55.842Z,20.37
2019-03-29T08:36:31.440Z,19.23
2019-03-29T08:38:07.044Z,19.53
2019-03-29T08:39:42.247Z,16.50
2019-03-29T08:41:17.906Z,19.00
2019-03-29T08:42:52.852Z,12.73
2019-03-29T08:44:28.749Z,12.07
2019-03-29T08:46:04.349Z,14.67
2019-03-29T08:47:40.469Z,14.33
2019-03-29T08:49:17.087Z,12.90
2019-03-29T08:50:52.987Z,12.67
2019-03-29T08:52:28.603Z,12.47
2019-03-29T08:54:04.408Z,14.23
2019-03-29T08:55:45.948Z,14.13
2019-03-29T08:57:18.047Z,14.70
2019-03-29T08:58:53.917Z,14.27
2019-03-29T09:00:33.594Z,14.43
2019-03-29T09:02:09.461Z,13.47
2019-03-29T09:03:45.167Z,14.47
2019-03-29T09:05:20.802Z,13.63
2019-03-29T09:06:56.399Z,13.47
2019-03-29T09:08:32.823Z,13.23
2019-03-29T09:10:23.006Z,13.13
2019-03-29T09:11:58.848Z,12.40
2019-03-29T09:13:34.476Z,11.93
2019-03-29T09:15:10.202Z,12.30
2019-03-29T09:16:46.287Z,12.20
2019-03-29T09:18:21.972Z,13.10
2019-03-29T09:19:57.865Z,12.27
2019-03-29T09:21:33.842Z,12.07
2019-03-29T09:23:10.554Z,12.20
2019-03-29T09:24:46.521Z,31.90
2019-03-29T09:26:22.116Z,14.80
2019-03-29T09:27:57.722Z,12.73
2019-03-29T09:29:33.393Z,12.03
2019-03-29T09:31:09.287Z,12.10
2019-03-29T09:32:44.984Z,12.40
2019-03-29T09:34:20.804Z,11.20
2019-03-29T09:35:56.507Z,11.43
2019-03-29T09:37:32.108Z,10.37
2019-03-29T09:39:09.373Z,9.90
2019-03-29T09:40:57.454Z,10.13
2019-03-29T09:42:29.497Z,9.77
2019-03-29T09:44:00.265Z,10.10
2019-03-29T09:45:35.863Z,9.33
2019-03-29T09:47:11.462Z,9.73
2019-03-29T09:48:47.075Z,9.80
2019-03-29T09:50:23.469Z,10.00
2019-03-29T09:51:59.399Z,8.60
2019-03-29T09:53:35.004Z,9.67
2019-03-29T09:55:11.012Z,10.87
2019-03-29T09:56:48.357Z,10.00
2019-03-29T09:58:24.373Z,10.27
2019-03-29T10:00:00.463Z,7.33
2019-03-29T10:01:36.287Z,7.40
2019-03-29T10:03:15.017Z,7.83
2019-03-29T10:04:50.905Z,7.10
2019-03-29T10:06:26.537Z,7.60
2019-03-29T10:08:02.128Z,8.00
2019-03-29T10:09:37.815Z,7.23
2019-03-29T10:11:13.644Z,6.87
2019-03-29T10:12:49.570Z,6.73
2019-03-29T10:14:25.976Z,7.23
2019-03-29T10:16:01.617Z,3.63
2019-03-29T10:17:37.481Z,2.93
2019-03-29T10:19:13.079Z,2.67
2019-03-29T10:20:48.672Z,3.00
2019-03-29T10:22:24.769Z,2.00
2019-03-29T10:24:01.152Z,2.87
2019-03-29T10:25:36.746Z,2.50
2019-03-29T10:27:12.416Z,2.90
2019-03-29T10:28:48.252Z,3.07
2019-03-29T10:30:39.719Z,3.57
2019-03-29T10:32:15.311Z,3.37
2019-03-29T10:33:52.017Z,3.00
2019-03-29T10:35:27.886Z,3.30
2019-03-29T10:37:03.832Z,3.73
2019-03-29T10:38:39.436Z,3.70
2019-03-29T10:40:15.417Z,3.70
2019-03-29T10:41:52.207Z,3.77
2019-03-29T10:43:27.877Z,3.53
2019-03-29T10:45:03.609Z,3.67
2019-03-29T10:46:39.481Z,3.70
2019-03-29T10:48:15.071Z,3.57
2019-03-29T10:49:50.924Z,3.73
2019-03-29T10:51:26.515Z,4.07
2019-03-29T10:53:02.137Z,4.10
2019-03-29T10:54:37.718Z,3.83
2019-03-29T10:56:13.335Z,4.20
2019-03-29T10:57:49.196Z,4.13
2019-03-29T10:59:27.828Z,4.10
2019-03-29T11:01:02.450Z,3.77
2019-03-29T11:02:38.531Z,3.77
2019-03-29T11:04:14.743Z,4.63
2019-03-29T11:05:50.848Z,4.27
2019-03-29T11:07:26.696Z,4.60
2019-03-29T11:09:02.542Z,4.40
2019-03-29T11:10:39.157Z,4.20
2019-03-29T11:12:15.467Z,4.67
2019-03-29T11:13:51.323Z,4.40
2019-03-29T11:15:26.947Z,4.37
2019-03-29T11:17:03.177Z,4.30
2019-03-29T11:18:39.038Z,4.57
2019-03-29T11:20:14.619Z,4.03
2019-03-29T11:21:50.559Z,4.47
2019-03-29T11:23:26.149Z,4.07
2019-03-29T11:25:01.990Z,4.70
2019-03-29T11:26:37.584Z,4.60
2019-03-29T11:28:13.256Z,4.67
2019-03-29T11:29:48.848Z,4.50
2019-03-29T11:31:25.644Z,5.07
2019-03-29T11:33:01.455Z,4.97
2019-03-29T11:34:37.310Z,5.00
2019-03-29T11:36:13.305Z,5.43
2019-03-29T11:37:49.209Z,4.33
2019-03-29T11:39:27.459Z,8.43
2019-03-29T11:41:02.142Z,5.20
2019-03-29T11:42:37.978Z,4.00
2019-03-29T11:44:14.185Z,3.50
2019-03-29T11:45:50.015Z,3.50
2019-03-29T11:47:26.160Z,3.73
2019-03-29T11:49:01.916Z,4.40
2019-03-29T11:50:39.889Z,3.97
2019-03-29T11:52:16.765Z,4.67
2019-03-29T11:53:56.848Z,4.23
2019-03-29T11:55:32.718Z,3.97
2019-03-29T11:57:08.689Z,4.23
2019-03-29T11:58:43.738Z,4.50
2019-03-29T12:00:36.411Z,4.90
2019-03-29T12:02:12.126Z,4.30
2019-03-29T12:03:47.826Z,4.93
2019-03-29T12:05:23.988Z,4.43
2019-03-29T12:07:03.309Z,4.20
2019-03-29T12:08:40.083Z,3.90
2019-03-29T12:10:16.053Z,4.90
2019-03-29T12:11:51.729Z,3.50
2019-03-29T12:13:40.486Z,4.67
2019-03-29T12:15:08.215Z,2.90
2019-03-29T12:16:45.557Z,5.27
2019-03-29T12:18:21.522Z,5.27
2019-03-29T12:19:58.959Z,5.07
2019-03-29T12:21:34.559Z,5.37
2019-03-29T12:23:09.536Z,6.23
2019-03-29T12:24:46.794Z,5.97
2019-03-29T12:26:23.495Z,4.63
2019-03-29T12:27:59.883Z,5.00
2019-03-29T12:29:34.877Z,4.77
2019-03-29T12:31:10.164Z,4.77
2019-03-29T12:32:47.420Z,4.20
2019-03-29T12:36:26.092Z,4.80
2019-03-29T12:38:01.780Z,4.40
2019-03-29T12:39:39.394Z,4.70
2019-03-29T12:41:14.996Z,4.37
2019-03-29T12:42:53.690Z,3.77
2019-03-29T12:44:29.296Z,3.70
2019-03-29T12:46:06.130Z,4.17
2019-03-29T12:47:44.962Z,4.43
2019-03-29T12:49:20.855Z,4.10
2019-03-29T12:50:56.548Z,3.63
2019-03-29T12:52:32.406Z,4.83
2019-03-29T12:54:12.153Z,5.00
2019-03-29T12:55:49.213Z,4.73
2019-03-29T12:57:25.289Z,4.20
2019-03-29T12:59:00.484Z,4.37
2019-03-29T13:00:36.123Z,3.80
2019-03-29T13:02:11.783Z,4.53
2019-03-29T13:03:47.395Z,4.10
2019-03-29T13:05:22.371Z,3.80
2019-03-29T13:06:57.607Z,5.27
2019-03-29T13:08:32.861Z,3.90
2019-03-29T13:10:08.576Z,4.00
2019-03-29T13:11:43.555Z,5.33
2019-03-29T13:13:18.611Z,4.67
2019-03-29T13:14:53.535Z,5.27
2019-03-29T13:16:28.541Z,5.77
2019-03-29T13:18:03.485Z,5.00
2019-03-29T13:19:38.410Z,5.30
2019-03-29T13:21:13.327Z,4.70
2019-03-29T13:22:48.261Z,4.97
2019-03-29T13:24:23.194Z,5.43
2019-03-29T13:25:58.374Z,5.20
2019-03-29T13:27:33.932Z,5.00
2019-03-29T13:29:09.775Z,5.17
2019-03-29T13:30:45.621Z,5.40
2019-03-29T13:32:21.515Z,4.63
2019-03-29T13:33:57.096Z,4.67
2019-03-29T13:35:32.959Z,4.60
2019-03-29T13:37:08.807Z,4.80
2019-03-29T13:38:44.389Z,4.60
2019-03-29T13:40:21.287Z,4.93
2019-03-29T13:41:57.607Z,5.17
2019-03-29T13:43:33.687Z,4.60
2019-03-29T13:45:11.030Z,4.90
2019-03-29T13:46:46.613Z,4.80
2019-03-29T13:48:22.231Z,5.07
2019-03-29T13:49:57.918Z,5.47
2019-03-29T13:51:32.852Z,5.27
2019-03-29T13:53:08.205Z,4.60
2019-03-29T13:54:43.719Z,4.60
2019-03-29T13:56:18.702Z,4.60
2019-03-29T13:57:53.602Z,5.00
2019-03-29T13:59:31.616Z,4.70
2019-03-29T14:01:05.805Z,4.90
2019-03-29T14:02:40.701Z,4.47
2019-03-29T14:04:16.253Z,4.80
2019-03-29T14:05:52.133Z,5.00
2019-03-29T14:07:27.981Z,5.20
2019-03-29T14:09:03.731Z,4.77
2019-03-29T14:10:38.671Z,5.07
2019-03-29T14:12:13.625Z,4.87
2019-03-29T14:13:49.211Z,5.77
2019-03-29T14:15:25.026Z,4.43
2019-03-29T14:17:00.519Z,4.57
2019-03-29T14:18:35.438Z,4.93
2019-03-29T14:20:11.925Z,4.87
2019-03-29T14:21:46.849Z,4.90
2019-03-29T14:23:22.023Z,4.90
2019-03-29T14:24:56.987Z,4.50
2019-03-29T14:26:31.886Z,4.87
2019-03-29T14:28:06.808Z,7.43
2019-03-29T14:29:42.000Z,5.60
2019-03-29T14:31:16.914Z,5.43
2019-03-29T14:32:51.817Z,4.77
2019-03-29T14:34:26.746Z,4.93
2019-03-29T14:36:01.698Z,5.10
2019-03-29T14:37:37.586Z,5.83
2019-03-29T14:39:13.485Z,6.10
2019-03-29T14:40:49.114Z,5.93
2019-03-29T14:42:24.709Z,5.43
2019-03-29T14:44:00.314Z,5.57
2019-03-29T14:45:35.972Z,5.40
2019-03-29T14:47:11.567Z,5.63
2019-03-29T14:48:47.161Z,5.30
2019-03-29T14:50:22.853Z,4.83
2019-03-29T14:51:58.719Z,5.03
2019-03-29T14:53:43.625Z,4.63
2019-03-29T14:55:19.312Z,5.00
2019-03-29T14:56:54.967Z,5.20
2019-03-29T14:58:30.586Z,5.27
2019-03-29T15:00:09.508Z,5.23
2019-03-29T15:01:45.105Z,5.60
2019-03-29T15:03:20.758Z,5.20
2019-03-29T15:04:56.316Z,4.97
2019-03-29T15:06:31.897Z,6.47
2019-03-29T15:08:07.568Z,4.90
2019-03-29T15:09:43.679Z,5.07
2019-03-29T15:11:22.609Z,5.13
2019-03-29T15:12:57.008Z,5.30
2019-03-29T15:14:32.709Z,5.33
2019-03-29T15:16:08.374Z,5.17
2019-03-29T15:17:44.234Z,46.70
2019-03-29T15:19:20.623Z,191.13
2019-03-29T15:20:56.459Z,25.93
2019-03-29T15:22:33.226Z,6.33
2019-03-29T15:24:08.898Z,5.87
2019-03-29T15:25:44.512Z,5.53
2019-03-29T15:27:21.332Z,6.20
2019-03-29T15:28:57.139Z,5.87
2019-03-29T15:30:32.986Z,5.63
2019-03-29T15:32:08.596Z,6.10
2019-03-29T15:33:44.186Z,5.83
2019-03-29T15:35:21.003Z,6.17
2019-03-29T15:36:56.719Z,5.60
2019-03-29T15:38:32.802Z,5.50
2019-03-29T15:40:09.833Z,6.70
2019-03-29T15:41:45.412Z,6.90
2019-03-29T15:43:21.029Z,5.63
2019-03-29T15:44:56.632Z,6.00
2019-03-29T15:46:32.246Z,5.97
2019-03-29T15:48:08.122Z,5.93
2019-03-29T15:49:55.373Z,5.60
2019-03-29T15:51:21.329Z,5.53
2019-03-29T15:52:57.150Z,5.87
2019-03-29T15:54:32.764Z,5.60
2019-03-29T15:56:08.364Z,5.63
2019-03-29T15:57:44.249Z,4.80
2019-03-29T15:59:20.119Z,5.60
2019-03-29T16:00:55.809Z,5.63
2019-03-29T16:02:31.434Z,4.87
2019-03-29T16:04:07.030Z,5.77
2019-03-29T16:05:42.650Z,5.57
2019-03-29T16:07:18.313Z,5.83
2019-03-29T16:08:55.736Z,5.47
2019-03-29T16:10:31.321Z,5.83
2019-03-29T16:12:06.929Z,5.53
2019-03-29T16:13:43.035Z,5.77
2019-03-29T16:15:18.720Z,5.97
2019-03-29T16:16:54.402Z,5.47
2019-03-29T16:18:30.026Z,6.40
2019-03-29T16:20:06.522Z,5.33
2019-03-29T16:21:42.079Z,6.20
2019-03-29T16:23:17.715Z,7.37
2019-03-29T16:24:53.599Z,6.80
2019-03-29T16:26:29.232Z,6.27
2019-03-29T16:28:04.836Z,5.80
2019-03-29T16:29:40.463Z,6.40
2019-03-29T16:31:16.122Z,7.00
2019-03-29T16:32:51.706Z,7.30
2019-03-29T16:34:27.323Z,6.80
2019-03-29T16:36:02.929Z,7.37
2019-03-29T16:37:39.047Z,6.97
2019-03-29T16:39:14.639Z,7.13
2019-03-29T16:40:50.563Z,7.17
2019-03-29T16:42:26.157Z,6.20
2019-03-29T16:44:02.069Z,6.17
2019-03-29T16:45:47.706Z,6.33
2019-03-29T16:47:15.230Z,6.80
2019-03-29T16:48:50.858Z,6.50
2019-03-29T16:50:26.478Z,5.97
2019-03-29T16:52:02.072Z,5.47
2019-03-29T16:53:39.808Z,5.93
2019-03-29T16:55:15.131Z,5.40
2019-03-29T16:56:50.937Z,6.53
2019-03-29T16:58:26.527Z,5.37
2019-03-29T17:00:02.913Z,5.77
2019-03-29T17:01:38.539Z,5.63
2019-03-29T17:03:14.227Z,5.87
2019-03-29T17:04:50.102Z,5.63
2019-03-29T17:06:25.788Z,5.90
2019-03-29T17:08:01.393Z,5.73
2019-03-29T17:09:37.545Z,5.53
2019-03-29T17:11:13.157Z,5.37
2019-03-29T17:12:52.103Z,5.40
2019-03-29T17:14:26.560Z,5.63
2019-03-29T17:16:02.477Z,5.60
2019-03-29T17:17:38.825Z,6.23
2019-03-29T17:19:14.681Z,5.27
2019-03-29T17:20:50.678Z,5.40
2019-03-29T17:22:26.563Z,5.57
2019-03-29T17:24:02.186Z,5.33
2019-03-29T17:25:38.084Z,5.70
2019-03-29T17:27:13.674Z,6.17
2019-03-29T17:28:49.318Z,5.57
2019-03-29T17:30:40.031Z,5.93
2019-03-29T17:32:15.646Z,5.63
2019-03-29T17:33:50.589Z,5.90
2019-03-29T17:35:25.507Z,5.73
2019-03-29T17:37:00.680Z,6.47
2019-03-29T17:38:35.884Z,6.33
2019-03-29T17:40:11.271Z,6.27
2019-03-29T17:41:46.177Z,5.77
2019-03-29T17:43:21.081Z,6.70
2019-03-29T17:44:58.888Z,7.23
2019-03-29T17:46:32.664Z,6.17
2019-03-29T17:48:08.091Z,6.43
2019-03-29T17:49:42.980Z,6.07
2019-03-29T17:51:17.989Z,7.33
2019-03-29T17:52:52.889Z,7.00
2019-03-29T17:54:28.113Z,7.20
2019-03-29T17:56:03.017Z,7.33
2019-03-29T17:57:38.003Z,7.23
2019-03-29T17:59:12.902Z,7.70
2019-03-29T18:00:47.821Z,7.70
2019-03-29T18:02:22.798Z,7.37
2019-03-29T18:03:57.741Z,7.20
2019-03-29T18:05:32.701Z,8.40
2019-03-29T18:07:07.621Z,7.93
2019-03-29T18:08:42.590Z,8.03
2019-03-29T18:10:17.681Z,8.57
2019-03-29T18:11:52.607Z,9.20
2019-03-29T18:13:27.638Z,10.03
2019-03-29T18:15:02.800Z,9.53
2019-03-29T18:16:37.814Z,9.87
2019-03-29T18:18:13.354Z,9.70
2019-03-29T18:19:48.844Z,8.53
2019-03-29T18:21:23.749Z,8.13
2019-03-29T18:22:58.845Z,8.03
2019-03-29T18:24:33.785Z,8.13
2019-03-29T18:26:09.011Z,9.07
2019-03-29T18:27:44.008Z,10.27
2019-03-29T18:29:18.977Z,10.03
2019-03-29T18:30:54.073Z,10.77
2019-03-29T18:32:29.057Z,10.55
2019-03-29T18:34:04.902Z,10.32
2019-03-29T18:35:40.369Z,9.65
2019-03-29T18:37:15.882Z,9.80
2019-03-29T18:38:51.273Z,9.88
2019-03-29T18:40:27.085Z,11.12
2019-03-29T18:42:02.158Z,10.13
2019-03-29T18:43:37.590Z,10.35
2019-03-29T18:45:13.077Z,10.03
2019-03-29T18:46:48.257Z,10.25
2019-03-29T18:48:23.548Z,10.72
2019-03-29T18:49:58.881Z,10.72
2019-03-29T18:51:34.117Z,10.58
2019-03-29T18:53:09.029Z,10.38
2019-03-29T18:54:43.989Z,10.78
2019-03-29T18:56:18.906Z,10.18
2019-03-29T18:57:53.825Z,10.05
2019-03-29T18:59:28.730Z,10.98
2019-03-29T19:01:04.154Z,10.05
2019-03-29T19:02:39.446Z,10.20
2019-03-29T19:04:14.365Z,9.95
2019-03-29T19:05:49.570Z,10.50
2019-03-29T19:07:33.995Z,10.88
2019-03-29T19:09:08.967Z,11.05
2019-03-29T19:10:43.889Z,10.75
2019-03-29T19:12:18.876Z,10.90
2019-03-29T19:13:54.229Z,11.08
2019-03-29T19:15:29.141Z,10.95
2019-03-29T19:17:04.117Z,11.68
2019-03-29T19:18:39.037Z,12.05
2019-03-29T19:20:26.553Z,11.10
2019-03-29T19:21:50.828Z,11.50
2019-03-29T19:23:26.077Z,13.03
2019-03-29T19:25:00.988Z,12.58
2019-03-29T19:26:36.247Z,12.65
2019-03-29T19:28:11.154Z,12.37
2019-03-29T19:29:46.070Z,13.45
2019-03-29T19:31:20.974Z,12.37
2019-03-29T19:32:56.469Z,12.40
2019-03-29T19:34:31.425Z,14.75
2019-03-29T19:36:06.689Z,16.57
2019-03-29T19:37:41.837Z,13.90
2019-03-29T19:39:16.938Z,14.58
2019-03-29T19:40:51.841Z,14.25
2019-03-29T19:42:26.754Z,15.25
2019-03-29T19:44:01.929Z,14.70
2019-03-29T19:45:37.205Z,13.43
2019-03-29T19:47:13.742Z,12.88
2019-03-29T19:48:49.060Z,12.37
2019-03-29T19:50:23.990Z,13.68
2019-03-29T19:51:59.313Z,14.20
2019-03-29T19:53:34.461Z,13.20
2019-03-29T19:55:09.984Z,13.28
2019-03-29T19:56:44.900Z,13.22
2019-03-29T19:58:19.963Z,13.25
2019-03-29T19:59:55.010Z,13.03
2019-03-29T20:01:29.989Z,13.45
2019-03-29T20:03:05.302Z,12.90
2019-03-29T20:04:40.308Z,13.30
2019-03-29T20:06:15.298Z,15.48
2019-03-29T20:07:50.210Z,15.68
2019-03-29T20:09:25.713Z,15.43
2019-03-29T20:11:00.911Z,15.13
2019-03-29T20:12:35.818Z,14.80
2019-03-29T20:14:10.756Z,15.53
2019-03-29T20:15:45.958Z,16.12
2019-03-29T20:17:27.396Z,16.87
2019-03-29T20:18:57.858Z,15.85
2019-03-29T20:20:33.085Z,17.25
2019-03-29T20:22:07.998Z,19.10
2019-03-29T20:23:42.905Z,18.65
2019-03-29T20:25:18.171Z,19.95
2019-03-29T20:26:53.092Z,20.40
2019-03-29T20:28:28.002Z,18.52
2019-03-29T20:30:03.249Z,18.80
2019-03-29T20:31:38.490Z,18.67
2019-03-29T20:33:13.726Z,17.40
2019-03-29T20:34:48.630Z,17.48
2019-03-29T20:36:23.645Z,17.80
2019-03-29T20:37:58.554Z,17.20
2019-03-29T20:39:33.457Z,17.45
2019-03-29T20:41:08.682Z,18.15
2019-03-29T20:42:43.885Z,18.45
2019-03-29T20:44:19.126Z,17.60
2019-03-29T20:45:54.304Z,17.20
2019-03-29T20:47:41.338Z,18.75
2019-03-29T20:49:05.889Z,18.23
2019-03-29T20:50:40.938Z,18.92